Time;durP1;ratioP1;P1;durP2;ratioP2;P2;SDS_P1;SDS_P2;PMS_P1;PMS_P2;Temp;Humidity;BMP_temperature;BMP_pressure;BME280_temperature;BME280_humidity;BME280_pressure;Samples;Min_cycle;Max_cycle;Signal;HPM_P1;HPM_P2
2023/05/11 00:00:16;;;;;;;10.93;8.50;;;11.30;99.90;;;;;;5034617;28;20076;-70
2023/05/11 00:02:42;;;;;;;12.97;9.77;;;11.30;99.90;;;;;;5046795;28;20044;-70
2023/05/11 00:05:08;;;;;;;13.13;9.40;;;11.30;99.90;;;;;;5036027;28;20041;-70
2023/05/11 00:07:34;;;;;;;13.70;10.10;;;11.30;99.90;;;;;;5043231;28;20287;-70
2023/05/11 00:09:59;;;;;;;13.60;9.83;;;11.40;99.90;;;;;;5039110;28;20283;-70
2023/05/11 00:12:25;;;;;;;12.37;9.70;;;11.40;99.90;;;;;;5044695;28;20477;-70
2023/05/11 00:14:51;;;;;;;15.00;10.40;;;11.40;99.90;;;;;;5025312;28;20106;-70
2023/05/11 00:17:18;;;;;;;13.70;10.30;;;11.40;99.90;;;;;;5029857;28;20037;-70
2023/05/11 00:19:44;;;;;;;14.37;10.97;;;11.40;99.90;;;;;;5025052;28;20056;-70
2023/05/11 00:22:10;;;;;;;13.90;10.17;;;11.40;99.90;;;;;;5037274;28;20284;-70
2023/05/11 00:24:35;;;;;;;13.57;10.27;;;11.40;99.90;;;;;;5030739;28;20615;-70
2023/05/11 00:27:01;;;;;;;14.00;10.23;;;11.40;99.90;;;;;;5041246;28;20029;-70
2023/05/11 00:29:27;;;;;;;13.50;10.50;;;11.40;99.90;;;;;;5042995;28;20139;-70
2023/05/11 00:31:52;;;;;;;13.57;10.47;;;11.40;99.90;;;;;;5042597;28;20037;-70
2023/05/11 00:34:18;;;;;;;14.40;10.50;;;11.40;99.90;;;;;;5037949;28;20505;-70
2023/05/11 00:36:44;;;;;;;11.53;9.20;;;11.40;99.90;;;;;;5041975;28;20448;-70
2023/05/11 00:39:11;;;;;;;11.90;9.17;;;11.40;99.90;;;;;;5044316;28;20037;-70
2023/05/11 00:41:37;;;;;;;12.37;9.67;;;11.40;99.90;;;;;;5024675;28;20092;-70
2023/05/11 00:44:03;;;;;;;12.50;9.50;;;11.50;99.90;;;;;;5042988;28;20303;-70
2023/05/11 00:46:29;;;;;;;12.17;9.30;;;11.50;99.90;;;;;;5030549;28;20386;-70
2023/05/11 00:48:55;;;;;;;13.57;9.63;;;11.50;99.90;;;;;;5049140;28;20370;-70
2023/05/11 00:51:21;;;;;;;14.77;9.87;;;11.50;99.90;;;;;;5028018;28;20456;-70
2023/05/11 00:53:50;;;;;;;12.97;9.90;;;11.50;99.90;;;;;;5047271;28;20363;-70
2023/05/11 00:56:16;;;;;;;13.30;9.73;;;11.50;99.90;;;;;;5041238;28;20040;-70
2023/05/11 00:58:42;;;;;;;12.07;9.03;;;11.50;99.90;;;;;;5046774;28;20796;-70
2023/05/11 01:01:08;;;;;;;14.13;10.20;;;11.50;99.90;;;;;;5031928;28;20058;-70
2023/05/11 01:03:34;;;;;;;13.77;10.27;;;11.50;99.90;;;;;;5027448;28;20295;-70
2023/05/11 01:06:21;;;;;;;13.77;10.50;;;11.50;99.90;;;;;;5020095;28;20517;-70
2023/05/11 01:09:08;;;;;;;12.00;9.80;;;11.50;99.90;;;;;;5045196;28;20758;-70
2023/05/11 01:11:41;;;;;;;13.43;10.23;;;11.50;99.90;;;;;;5039618;28;21044;-70
2023/05/11 01:14:35;;;;;;;12.53;9.60;;;11.50;99.90;;;;;;5047574;28;20283;-70
2023/05/11 01:17:27;;;;;;;14.00;9.97;;;11.50;99.90;;;;;;5017749;28;20384;-69
2023/05/11 01:20:01;;;;;;;15.83;10.57;;;11.50;99.90;;;;;;5041687;28;20390;-69
2023/05/11 01:22:43;;;;;;;15.00;10.93;;;11.50;99.90;;;;;;5028243;28;20299;-69
2023/05/11 01:25:35;;;;;;;17.40;11.43;;;11.50;99.90;;;;;;5044814;28;20145;-69
2023/05/11 01:28:38;;;;;;;14.97;10.93;;;11.50;99.90;;;;;;5024558;28;20291;-69
2023/05/11 01:31:12;;;;;;;14.40;10.37;;;11.50;99.90;;;;;;5047505;28;20378;-69
2023/05/11 01:33:54;;;;;;;16.97;11.03;;;11.40;99.90;;;;;;5036158;28;20288;-70
2023/05/11 01:36:24;;;;;;;13.93;10.87;;;11.40;99.90;;;;;;5037973;28;20288;-70
2023/05/11 01:38:52;;;;;;;15.77;11.30;;;11.40;99.90;;;;;;5031469;28;20287;-70
2023/05/11 01:41:21;;;;;;;14.40;10.87;;;11.40;99.90;;;;;;5046014;28;20363;-70
2023/05/11 01:43:53;;;;;;;15.47;11.47;;;11.40;99.90;;;;;;5031321;28;20302;-70
2023/05/11 01:46:23;;;;;;;14.13;11.00;;;11.40;99.90;;;;;;5042707;28;20323;-70
2023/05/11 01:48:52;;;;;;;14.83;10.67;;;11.40;99.90;;;;;;5039493;28;20354;-70
2023/05/11 01:51:18;;;;;;;13.60;10.37;;;11.40;99.90;;;;;;5047908;28;20279;-70
2023/05/11 01:53:46;;;;;;;15.50;10.23;;;11.40;99.90;;;;;;5031597;28;20702;-70
2023/05/11 01:56:13;;;;;;;16.50;12.23;;;11.40;99.90;;;;;;5025239;28;20287;-70
2023/05/11 01:58:41;;;;;;;14.47;11.10;;;11.40;99.90;;;;;;5046980;28;20687;-70
2023/05/11 02:01:08;;;;;;;15.47;11.23;;;11.40;99.90;;;;;;5047158;28;20333;-70
2023/05/11 02:03:35;;;;;;;14.47;10.50;;;11.40;99.90;;;;;;5047140;28;20295;-70
2023/05/11 02:06:05;;;;;;;14.97;10.23;;;11.40;99.90;;;;;;5036680;28;20910;-70
2023/05/11 02:08:31;;;;;;;14.53;10.97;;;11.40;99.90;;;;;;5029690;28;20295;-70
2023/05/11 02:10:59;;;;;;;13.60;10.47;;;11.40;99.90;;;;;;5041308;28;20291;-70
2023/05/11 02:13:26;;;;;;;16.77;11.40;;;11.40;99.90;;;;;;5044175;28;20280;-70
2023/05/11 02:15:55;;;;;;;14.47;9.87;;;11.40;99.90;;;;;;5029548;28;20287;-70
2023/05/11 02:18:20;;;;;;;13.50;10.30;;;11.40;99.90;;;;;;5042595;28;20299;-70
2023/05/11 02:20:47;;;;;;;15.30;11.07;;;11.40;99.90;;;;;;5023637;28;20823;-70
2023/05/11 02:23:13;;;;;;;15.23;10.93;;;11.40;99.90;;;;;;5036448;28;20040;-70
2023/05/11 02:25:40;;;;;;;14.77;10.93;;;11.40;99.90;;;;;;5036340;28;20280;-70
2023/05/11 02:28:07;;;;;;;13.50;10.27;;;11.40;99.90;;;;;;5047169;28;20391;-70
2023/05/11 02:30:39;;;;;;;13.83;9.77;;;11.40;99.90;;;;;;5045115;28;20279;-70
2023/05/11 02:33:07;;;;;;;14.10;10.13;;;11.40;99.90;;;;;;5045236;28;20784;-69
2023/05/11 02:35:39;;;;;;;14.33;9.87;;;11.40;99.90;;;;;;5043372;28;20322;-69
2023/05/11 02:38:07;;;;;;;14.80;10.47;;;11.30;99.90;;;;;;5035491;28;20300;-70
2023/05/11 02:40:38;;;;;;;14.77;11.23;;;11.30;99.90;;;;;;5038677;28;20341;-70
2023/05/11 02:43:11;;;;;;;15.37;11.30;;;11.30;99.90;;;;;;5027455;28;20350;-70
2023/05/11 02:45:37;;;;;;;15.37;11.23;;;11.30;99.90;;;;;;5025122;28;20826;-70
2023/05/11 02:48:08;;;;;;;15.97;11.37;;;11.30;99.90;;;;;;5030128;28;20297;-70
2023/05/11 02:50:40;;;;;;;14.17;10.67;;;11.30;99.90;;;;;;5024689;28;20352;-70
2023/05/11 02:53:13;;;;;;;16.23;11.37;;;11.30;99.90;;;;;;5043888;28;20299;-70
2023/05/11 02:55:40;;;;;;;20.47;10.60;;;11.30;99.90;;;;;;5042259;28;20283;-70
2023/05/11 02:58:06;;;;;;;15.87;11.67;;;11.30;99.90;;;;;;5030044;28;20282;-70
2023/05/11 03:00:33;;;;;;;17.80;11.73;;;11.30;99.90;;;;;;5041617;28;20299;-70
2023/05/11 03:02:58;;;;;;;17.53;11.60;;;11.30;99.90;;;;;;5021298;28;20356;-70
2023/05/11 03:05:24;;;;;;;16.30;11.53;;;11.30;99.90;;;;;;5043373;28;20300;-70
2023/05/11 03:07:52;;;;;;;19.40;12.63;;;11.30;99.90;;;;;;5038813;28;20095;-70
2023/05/11 03:10:18;;;;;;;18.60;12.97;;;11.30;99.90;;;;;;5042553;28;20789;-70
2023/05/11 03:12:45;;;;;;;19.87;13.60;;;11.30;99.90;;;;;;5038712;28;20291;-70
2023/05/11 03:15:11;;;;;;;18.80;12.83;;;11.30;99.90;;;;;;5038159;28;20804;-70
2023/05/11 03:17:38;;;;;;;19.93;12.87;;;11.30;99.90;;;;;;5037224;28;20385;-70
2023/05/11 03:20:06;;;;;;;20.13;13.47;;;11.30;99.90;;;;;;5046198;28;20279;-70
2023/05/11 03:22:34;;;;;;;19.13;13.80;;;11.30;99.90;;;;;;5023452;28;20304;-70
2023/05/11 03:25:01;;;;;;;19.70;13.43;;;11.30;99.90;;;;;;5035149;28;20295;-70
2023/05/11 03:27:28;;;;;;;19.43;13.60;;;11.30;99.90;;;;;;5038489;28;20287;-70
2023/05/11 03:29:55;;;;;;;20.63;13.80;;;11.30;99.90;;;;;;5034123;28;20280;-70
2023/05/11 03:32:21;;;;;;;19.13;13.37;;;11.30;99.90;;;;;;5033972;28;20803;-70
2023/05/11 03:34:46;;;;;;;20.47;14.17;;;11.30;99.90;;;;;;5038667;28;20362;-70
2023/05/11 03:37:13;;;;;;;18.87;12.67;;;11.40;99.90;;;;;;5045867;28;20382;-70
2023/05/11 03:39:42;;;;;;;20.67;13.87;;;11.40;99.90;;;;;;5046126;28;20060;-70
2023/05/11 03:42:11;;;;;;;18.30;12.77;;;11.30;99.90;;;;;;5046223;28;20647;-70
2023/05/11 03:44:37;;;;;;;19.00;12.93;;;11.40;99.90;;;;;;5023911;28;20319;-70
2023/05/11 03:47:04;;;;;;;20.07;13.10;;;11.40;99.90;;;;;;5027355;28;20283;-70
2023/05/11 03:49:30;;;;;;;20.50;13.47;;;11.40;99.90;;;;;;5045353;28;20376;-70
2023/05/11 03:51:56;;;;;;;19.13;13.40;;;11.30;99.90;;;;;;5028490;28;20295;-70
2023/05/11 03:54:22;;;;;;;18.73;13.37;;;11.30;99.90;;;;;;5038471;28;20410;-70
2023/05/11 03:56:48;;;;;;;17.87;12.73;;;11.30;99.90;;;;;;5037303;28;20315;-70
2023/05/11 03:59:17;;;;;;;21.63;13.90;;;11.30;99.90;;;;;;5048618;28;20323;-70
2023/05/11 04:01:43;;;;;;;19.60;13.20;;;11.30;99.90;;;;;;5042492;28;20692;-70
2023/05/11 04:04:09;;;;;;;19.50;12.80;;;11.30;99.90;;;;;;5046392;28;20464;-70
2023/05/11 04:06:35;;;;;;;18.37;11.93;;;11.30;99.90;;;;;;5025377;28;20354;-70
2023/05/11 04:09:00;;;;;;;24.93;12.40;;;11.30;99.90;;;;;;5026235;28;20123;-70
2023/05/11 04:11:28;;;;;;;19.73;11.60;;;11.20;99.90;;;;;;5022333;28;20037;-70
2023/05/11 04:13:54;;;;;;;49.70;12.17;;;11.20;99.90;;;;;;5045906;28;20468;-70
2023/05/11 04:16:20;;;;;;;39.30;11.47;;;11.20;99.90;;;;;;5038649;28;20286;-70
2023/05/11 04:18:45;;;;;;;21.33;10.67;;;11.10;99.90;;;;;;5040966;28;20052;-70
2023/05/11 04:21:11;;;;;;;25.77;10.47;;;11.10;99.90;;;;;;5045860;28;20048;-70
2023/05/11 04:23:37;;;;;;;35.53;9.73;;;11.00;99.90;;;;;;5047959;28;20103;-70
2023/05/11 04:26:02;;;;;;;29.50;9.30;;;11.00;99.90;;;;;;5037360;28;20416;-70
2023/05/11 04:28:28;;;;;;;27.40;9.70;;;11.00;99.90;;;;;;5027472;28;20374;-70
2023/05/11 04:30:55;;;;;;;23.13;9.63;;;10.90;99.90;;;;;;5039458;28;20398;-70
2023/05/11 04:33:21;;;;;;;65.33;10.03;;;10.90;99.90;;;;;;5032340;28;20037;-70
2023/05/11 04:35:51;;;;;;;42.27;9.80;;;10.90;99.90;;;;;;5047896;28;20299;-70
2023/05/11 04:38:18;;;;;;;76.97;10.87;;;10.80;99.90;;;;;;5044012;28;20287;-70
2023/05/11 04:40:44;;;;;;;32.17;10.60;;;10.80;99.90;;;;;;5048115;28;20283;-70
2023/05/11 04:43:09;;;;;;;35.13;8.97;;;10.80;99.90;;;;;;5045022;28;20292;-70
2023/05/11 04:45:35;;;;;;;26.20;8.53;;;10.80;99.90;;;;;;5044684;28;20048;-70
2023/05/11 04:48:01;;;;;;;41.13;8.07;;;10.70;99.90;;;;;;5037299;28;20469;-70
2023/05/11 04:50:27;;;;;;;43.23;7.87;;;10.70;99.90;;;;;;5038123;28;20049;-70
2023/05/11 04:52:53;;;;;;;61.60;8.23;;;10.70;99.90;;;;;;5029095;28;20096;-70
2023/05/11 04:55:20;;;;;;;28.83;6.63;;;10.70;99.90;;;;;;5039763;28;20718;-70
2023/05/11 04:57:45;;;;;;;20.27;6.70;;;10.70;99.90;;;;;;5047352;28;20128;-70
2023/05/11 05:00:11;;;;;;;11.47;6.57;;;10.60;99.90;;;;;;5029523;28;20421;-70
2023/05/11 05:02:37;;;;;;;11.33;6.77;;;10.60;99.90;;;;;;5045493;28;20404;-70
2023/05/11 05:05:03;;;;;;;11.67;7.07;;;10.60;99.90;;;;;;5026912;28;20136;-70
2023/05/11 05:07:29;;;;;;;18.27;7.40;;;10.70;99.90;;;;;;5027850;28;20049;-70
2023/05/11 05:09:54;;;;;;;11.63;6.57;;;10.70;99.90;;;;;;5043495;28;20036;-70
2023/05/11 05:12:20;;;;;;;19.07;6.33;;;10.70;99.90;;;;;;5039302;28;20039;-70
2023/05/11 05:14:45;;;;;;;25.67;6.20;;;10.70;99.90;;;;;;5044981;28;20039;-70
2023/05/11 05:17:11;;;;;;;29.63;6.53;;;10.80;99.90;;;;;;5043922;28;20124;-70
2023/05/11 05:19:37;;;;;;;24.20;5.97;;;10.80;99.90;;;;;;5050314;28;20032;-70
2023/05/11 05:22:04;;;;;;;15.27;6.73;;;10.80;99.90;;;;;;5045650;28;20460;-70
2023/05/11 05:24:29;;;;;;;25.93;6.57;;;10.80;99.90;;;;;;5031726;28;20060;-70
2023/05/11 05:26:55;;;;;;;21.47;6.23;;;10.80;99.90;;;;;;5042282;28;20384;-70
2023/05/11 05:29:21;;;;;;;11.63;5.30;;;10.80;99.90;;;;;;5044328;28;20124;-70
2023/05/11 05:31:46;;;;;;;18.47;5.60;;;10.80;99.90;;;;;;5039193;28;20038;-70
2023/05/11 05:34:12;;;;;;;20.10;6.33;;;10.80;99.90;;;;;;5033703;28;20705;-70
2023/05/11 05:36:38;;;;;;;9.63;5.60;;;10.80;99.90;;;;;;5044977;28;20068;-70
2023/05/11 05:39:08;;;;;;;18.73;6.50;;;10.80;99.90;;;;;;5023790;28;20048;-70
2023/05/11 05:41:35;;;;;;;9.30;6.17;;;10.90;99.90;;;;;;5043517;28;20298;-70
2023/05/11 05:44:01;;;;;;;13.03;5.93;;;10.90;99.90;;;;;;5040975;28;20292;-70
2023/05/11 05:46:27;;;;;;;8.27;5.57;;;10.90;99.90;;;;;;5042304;28;20292;-70
2023/05/11 05:48:52;;;;;;;7.80;5.20;;;11.00;99.90;;;;;;5037720;28;20545;-69
2023/05/11 05:51:19;;;;;;;9.07;5.43;;;11.00;99.90;;;;;;5019130;28;20040;-70
2023/05/11 05:53:45;;;;;;;13.80;6.07;;;11.00;99.90;;;;;;5040027;28;20060;-70
2023/05/11 05:56:11;;;;;;;8.07;5.37;;;11.10;99.90;;;;;;5047394;28;20321;-70
2023/05/11 05:58:36;;;;;;;8.17;5.33;;;11.10;99.90;;;;;;5047897;28;20295;-70
2023/05/11 06:01:02;;;;;;;7.07;5.07;;;11.20;99.90;;;;;;5035542;28;20053;-70
2023/05/11 06:03:28;;;;;;;8.20;5.47;;;11.20;99.90;;;;;;5047879;28;20041;-70
2023/05/11 06:05:53;;;;;;;6.93;5.20;;;11.30;99.90;;;;;;5036205;28;20124;-70
2023/05/11 06:08:19;;;;;;;7.77;4.97;;;11.30;99.90;;;;;;5044298;28;20028;-70
2023/05/11 06:10:45;;;;;;;7.80;4.70;;;11.30;99.90;;;;;;5040236;28;20038;-70
2023/05/11 06:13:11;;;;;;;6.27;4.37;;;11.40;99.90;;;;;;5046739;28;20045;-70
2023/05/11 06:15:36;;;;;;;6.57;4.57;;;11.40;99.90;;;;;;5027235;28;20493;-70
2023/05/11 06:18:02;;;;;;;7.03;4.37;;;11.40;99.90;;;;;;5045600;28;20132;-70
2023/05/11 06:20:30;;;;;;;7.07;4.87;;;11.50;99.90;;;;;;5029398;28;20040;-70
2023/05/11 06:22:56;;;;;;;7.37;4.80;;;11.50;99.90;;;;;;5047245;28;20079;-70
2023/05/11 06:25:21;;;;;;;6.90;4.90;;;11.60;99.90;;;;;;5030637;28;20341;-70
2023/05/11 06:27:47;;;;;;;7.43;4.50;;;11.60;99.90;;;;;;5039809;28;20045;-70
2023/05/11 06:30:13;;;;;;;6.73;5.00;;;11.70;99.90;;;;;;5045998;28;20041;-70
2023/05/11 06:32:38;;;;;;;7.00;4.87;;;11.80;99.90;;;;;;5026683;28;20397;-70
2023/05/11 06:35:05;;;;;;;6.30;4.63;;;11.80;99.90;;;;;;5038212;28;20186;-70
2023/05/11 06:37:30;;;;;;;6.13;4.20;;;11.90;99.90;;;;;;5030770;28;20036;-70
2023/05/11 06:39:58;;;;;;;6.03;4.47;;;11.90;99.90;;;;;;5027027;28;20291;-70
2023/05/11 06:42:23;;;;;;;4.97;3.60;;;11.90;99.90;;;;;;5044422;28;20282;-69
2023/05/11 06:44:49;;;;;;;6.00;4.30;;;11.90;99.90;;;;;;5045600;28;20847;-70
2023/05/11 06:47:15;;;;;;;5.43;4.00;;;11.90;99.90;;;;;;5037982;28;20037;-70
2023/05/11 06:49:41;;;;;;;6.00;4.60;;;11.90;99.90;;;;;;5022346;28;20501;-70
2023/05/11 06:52:08;;;;;;;4.87;3.70;;;11.90;99.90;;;;;;5028259;28;20066;-70
2023/05/11 06:54:34;;;;;;;6.17;4.00;;;11.90;99.90;;;;;;5029677;28;20291;-70
2023/05/11 06:57:02;;;;;;;6.27;4.10;;;11.90;99.90;;;;;;5046815;28;20310;-70
2023/05/11 06:59:28;;;;;;;6.80;4.10;;;12.00;99.90;;;;;;5025336;28;20362;-70
2023/05/11 07:01:54;;;;;;;6.00;4.03;;;12.00;99.90;;;;;;5046946;28;20783;-70
2023/05/11 07:04:20;;;;;;;5.70;4.20;;;12.10;99.90;;;;;;5043625;28;20302;-70
2023/05/11 07:06:46;;;;;;;6.27;3.70;;;12.20;99.90;;;;;;5025675;28;20037;-70
2023/05/11 07:09:11;;;;;;;5.13;3.80;;;12.20;99.90;;;;;;5051037;28;20048;-70
2023/05/11 07:11:37;;;;;;;6.60;3.80;;;12.20;99.90;;;;;;5044830;28;20040;-70
2023/05/11 07:14:03;;;;;;;5.07;3.70;;;12.20;99.90;;;;;;5051067;28;20119;-70
2023/05/11 07:16:28;;;;;;;5.10;3.80;;;12.20;99.90;;;;;;5048182;28;20045;-70
2023/05/11 07:18:55;;;;;;;5.30;3.90;;;12.20;99.90;;;;;;5044580;28;20409;-70
2023/05/11 07:21:21;;;;;;;4.63;3.47;;;12.20;99.90;;;;;;5031767;28;20052;-70
2023/05/11 07:23:47;;;;;;;4.60;3.60;;;12.20;99.90;;;;;;5029288;28;20292;-70
2023/05/11 07:26:12;;;;;;;5.00;3.77;;;12.20;99.90;;;;;;5020187;28;20799;-72
2023/05/11 07:28:38;;;;;;;4.77;3.03;;;12.30;99.90;;;;;;5047968;28;20288;-71
2023/05/11 07:31:04;;;;;;;4.57;3.47;;;12.30;99.90;;;;;;5046324;28;20041;-72
2023/05/11 07:33:32;;;;;;;5.23;4.00;;;12.30;99.90;;;;;;5044277;28;20477;-72
2023/05/11 07:35:57;;;;;;;5.73;3.50;;;12.30;99.90;;;;;;5047675;28;20287;-72
2023/05/11 07:38:23;;;;;;;3.63;2.90;;;12.40;99.90;;;;;;5036973;28;20754;-71
2023/05/11 07:40:49;;;;;;;5.50;3.80;;;12.40;99.90;;;;;;5053331;28;20044;-71
2023/05/11 07:43:15;;;;;;;6.70;4.03;;;12.40;99.90;;;;;;5032345;28;20043;-71
2023/05/11 07:45:40;;;;;;;5.47;3.33;;;12.50;99.90;;;;;;5052114;28;20041;-71
2023/05/11 07:48:06;;;;;;;5.57;3.10;;;12.60;99.90;;;;;;5036009;28;20417;-71
2023/05/11 07:50:32;;;;;;;3.77;2.80;;;12.60;99.90;;;;;;5023061;28;20033;-71
2023/05/11 07:52:58;;;;;;;3.27;2.70;;;12.70;99.90;;;;;;5031142;28;20033;-71
2023/05/11 07:55:29;;;;;;;3.73;2.77;;;12.70;99.90;;;;;;5023960;28;20049;-71
2023/05/11 07:57:55;;;;;;;4.57;3.00;;;12.70;99.90;;;;;;5035208;28;20059;-71
2023/05/11 08:00:21;;;;;;;3.40;2.80;;;12.70;99.90;;;;;;5035009;28;20374;-71
2023/05/11 08:02:47;;;;;;;2.70;2.27;;;12.70;99.90;;;;;;5041981;28;20508;-71
2023/05/11 08:05:13;;;;;;;3.70;2.70;;;12.60;99.90;;;;;;5032342;28;20299;-71
2023/05/11 08:07:38;;;;;;;3.50;2.90;;;12.60;99.90;;;;;;5048764;28;20039;-71
2023/05/11 08:10:05;;;;;;;3.33;2.67;;;12.70;99.90;;;;;;5044311;28;20083;-71
2023/05/11 08:12:31;;;;;;;3.43;2.33;;;12.70;99.90;;;;;;5030169;28;20542;-72
2023/05/11 08:14:57;;;;;;;3.47;2.47;;;12.70;99.90;;;;;;5034888;28;20709;-72
2023/05/11 08:17:22;;;;;;;3.13;2.17;;;12.70;99.90;;;;;;5025921;28;20287;-71
2023/05/11 08:19:48;;;;;;;3.03;2.20;;;12.70;99.90;;;;;;5034889;28;20041;-71
2023/05/11 08:22:14;;;;;;;2.97;2.00;;;12.70;99.90;;;;;;5044634;28;20041;-71
2023/05/11 08:24:39;;;;;;;2.73;1.80;;;12.70;99.90;;;;;;5027258;28;20072;-71
2023/05/11 08:27:05;;;;;;;3.07;2.20;;;12.70;99.90;;;;;;5050044;28;20078;-71
2023/05/11 08:29:31;;;;;;;2.13;1.70;;;12.70;99.90;;;;;;5034984;28;20715;-71
2023/05/11 08:31:57;;;;;;;3.17;2.00;;;12.70;99.90;;;;;;5026943;28;20045;-71
2023/05/11 08:34:23;;;;;;;4.10;2.27;;;12.80;99.90;;;;;;5030318;28;20127;-73
2023/05/11 08:36:49;;;;;;;3.03;1.97;;;12.80;99.90;;;;;;5030399;28;20367;-73
2023/05/11 08:39:16;;;;;;;4.13;2.30;;;12.90;99.90;;;;;;5030770;28;20724;-73
2023/05/11 08:41:43;;;;;;;3.57;2.00;;;12.90;99.90;;;;;;5030058;28;20287;-73
2023/05/11 08:44:09;;;;;;;3.73;1.80;;;13.00;99.90;;;;;;5047693;28;20382;-73
2023/05/11 08:46:40;;;;;;;2.57;1.83;;;13.00;99.90;;;;;;5043548;28;20598;-74
2023/05/11 08:49:07;;;;;;;2.37;1.70;;;12.90;99.90;;;;;;5034669;28;20276;-72
2023/05/11 08:51:32;;;;;;;3.10;1.97;;;13.00;99.90;;;;;;5024040;28;20271;-72
2023/05/11 08:53:58;;;;;;;2.10;1.60;;;13.00;99.90;;;;;;5046832;28;20369;-72
2023/05/11 08:56:25;;;;;;;3.90;1.90;;;13.00;99.90;;;;;;5025015;28;20046;-73
2023/05/11 08:58:54;;;;;;;3.40;2.20;;;12.90;99.90;;;;;;5042857;28;20304;-73
2023/05/11 09:01:22;;;;;;;3.50;2.00;;;12.90;99.90;;;;;;5054829;28;20300;-73
2023/05/11 09:03:48;;;;;;;3.50;2.30;;;12.90;99.90;;;;;;5031047;28;20303;-73
2023/05/11 09:06:15;;;;;;;3.17;2.30;;;13.00;99.90;;;;;;5030499;28;20300;-73
2023/05/11 09:08:43;;;;;;;4.20;2.47;;;12.90;99.90;;;;;;5037092;28;20287;-73
2023/05/11 09:11:09;;;;;;;3.30;2.63;;;12.90;99.90;;;;;;5027004;28;20298;-73
2023/05/11 09:13:35;;;;;;;3.77;2.43;;;12.90;99.90;;;;;;5042981;28;20295;-73
2023/05/11 09:16:01;;;;;;;4.30;3.23;;;12.90;99.90;;;;;;5032809;28;20907;-73
2023/05/11 09:18:27;;;;;;;5.17;3.60;;;12.90;99.90;;;;;;5051299;28;20037;-73
2023/05/11 09:20:53;;;;;;;4.07;3.33;;;13.00;99.90;;;;;;5027313;28;20633;-72
2023/05/11 09:23:28;;;;;;;5.40;4.00;;;13.00;99.90;;;;;;5038719;28;20033;-73
2023/05/11 09:25:54;;;;;;;6.53;4.30;;;13.00;99.90;;;;;;5040806;28;20292;-73
2023/05/11 09:28:24;;;;;;;7.83;4.73;;;13.10;99.90;;;;;;5051473;28;20044;-73
2023/05/11 09:30:49;;;;;;;6.90;4.73;;;13.20;99.90;;;;;;5026977;28;20041;-73
2023/05/11 09:33:24;;;;;;;7.93;4.90;;;13.10;99.90;;;;;;5022560;28;20330;-73
2023/05/11 09:35:51;;;;;;;7.15;5.13;;;13.20;99.90;;;;;;5016042;28;20068;-71
2023/05/11 09:38:21;;;;;;;6.93;4.37;;;13.30;99.90;;;;;;5027844;28;20045;-71
2023/05/11 09:40:52;;;;;;;6.77;4.60;;;13.40;99.90;;;;;;5037433;28;20303;-71
2023/05/11 09:43:19;;;;;;;6.47;4.40;;;13.50;99.90;;;;;;5033694;28;20299;-71
2023/05/11 09:45:47;;;;;;;8.70;5.33;;;13.60;99.90;;;;;;5013270;28;20284;-71
2023/05/11 09:48:27;;;;;;;9.10;5.23;;;13.70;99.90;;;;;;5025077;28;20934;-71
2023/05/11 09:51:05;;;;;;;8.77;5.40;;;13.80;99.90;;;;;;5018129;28;20795;-71
2023/05/11 09:53:42;;;;;;;10.90;5.77;;;13.90;99.90;;;;;;5025107;28;20288;-71
2023/05/11 09:56:09;;;;;;;10.40;6.07;;;14.00;99.90;;;;;;5025506;28;20292;-71
2023/05/11 09:58:46;;;;;;;12.17;6.20;;;14.10;99.90;;;;;;5036685;28;20287;-71
2023/05/11 10:01:12;;;;;;;11.43;6.20;;;14.20;99.90;;;;;;5029496;28;20291;-71
2023/05/11 10:03:50;;;;;;;11.03;6.73;;;14.30;99.90;;;;;;5018789;28;20334;-71
2023/05/11 10:06:16;;;;;;;12.37;6.90;;;14.50;99.90;;;;;;5022786;28;20353;-71
2023/05/11 10:08:42;;;;;;;13.27;6.67;;;14.50;99.90;;;;;;5030412;28;20306;-71
2023/05/11 10:11:08;;;;;;;11.23;6.70;;;14.50;99.90;;;;;;5022202;28;20595;-71
2023/05/11 10:13:35;;;;;;;12.20;6.87;;;14.60;99.90;;;;;;5025957;28;20043;-71
2023/05/11 10:16:05;;;;;;;11.43;6.53;;;14.70;99.90;;;;;;5023226;28;20086;-71
2023/05/11 10:18:32;;;;;;;12.47;6.50;;;14.80;99.90;;;;;;5026285;28;20279;-71
2023/05/11 10:20:58;;;;;;;12.37;6.83;;;14.90;99.90;;;;;;5042001;28;20285;-71
2023/05/11 10:23:25;;;;;;;12.23;6.37;;;14.90;99.90;;;;;;5040248;28;20315;-71
2023/05/11 10:25:52;;;;;;;10.63;6.17;;;15.00;99.90;;;;;;5042126;28;20279;-71
2023/05/11 10:28:19;;;;;;;9.63;5.77;;;15.20;99.90;;;;;;5044732;28;20279;-71
2023/05/11 10:30:46;;;;;;;10.47;5.87;;;15.20;99.90;;;;;;5029140;28;20806;-71
2023/05/11 10:33:12;;;;;;;10.53;6.33;;;15.30;99.90;;;;;;5035091;28;20291;-71
2023/05/11 10:35:38;;;;;;;9.80;6.40;;;15.40;99.90;;;;;;5027532;28;20310;-71
2023/05/11 10:38:06;;;;;;;9.87;5.77;;;15.50;99.90;;;;;;5043927;28;20284;-71
2023/05/11 10:40:41;;;;;;;9.13;5.50;;;15.60;99.90;;;;;;5044577;28;20106;-71
2023/05/11 10:43:18;;;;;;;9.07;4.77;;;15.80;99.90;;;;;;5038583;28;20303;-72
2023/05/11 10:46:12;;;;;;;8.90;5.20;;;16.00;99.90;;;;;;5039036;28;20283;-71
2023/05/11 10:48:51;;;;;;;7.03;4.63;;;16.50;99.90;;;;;;5041165;28;20313;-71
2023/05/11 10:51:38;;;;;;;8.90;5.33;;;16.90;99.90;;;;;;5023854;28;20283;-71
2023/05/11 10:54:30;;;;;;;8.70;5.37;;;17.10;99.90;;;;;;5024639;28;20294;-71
2023/05/11 10:57:15;;;;;;;10.63;6.10;;;17.10;99.90;;;;;;5024542;28;20288;-71
2023/05/11 11:00:12;;;;;;;7.23;5.17;;;17.10;99.90;;;;;;5040903;28;20905;-71
2023/05/11 11:02:38;;;;;;;8.40;5.10;;;17.00;99.90;;;;;;5025291;28;20314;-71
2023/05/11 11:05:08;;;;;;;8.03;6.13;;;17.00;99.90;;;;;;5042960;28;20298;-71
2023/05/11 11:08:02;;;;;;;7.60;5.87;;;16.90;99.90;;;;;;5027334;28;20390;-71
2023/05/11 11:10:37;;;;;;;8.13;5.20;;;16.90;99.90;;;;;;5035059;28;20279;-71
2023/05/11 11:13:08;;;;;;;7.95;5.50;;;16.80;99.90;;;;;;5041179;28;20282;-72
2023/05/11 11:15:52;;;;;;;6.73;4.73;;;16.80;99.90;;;;;;5022528;28;20036;-71
2023/05/11 11:18:33;;;;;;;6.63;4.60;;;17.00;99.90;;;;;;5048632;28;20798;-71
2023/05/11 11:21:00;;;;;;;6.63;5.30;;;17.10;99.90;;;;;;5024786;28;20310;-71
2023/05/11 11:23:47;;;;;;;6.17;4.73;;;17.20;99.90;;;;;;5028727;28;20326;-71
2023/05/11 11:26:17;;;;;;;5.67;4.37;;;17.20;99.90;;;;;;5042229;28;20493;-72
2023/05/11 11:29:04;;;;;;;6.07;4.63;;;17.30;99.90;;;;;;5046439;28;20298;-71
2023/05/11 11:31:31;;;;;;;5.83;4.57;;;17.40;99.90;;;;;;5022176;28;20503;-71
2023/05/11 11:34:18;;;;;;;5.87;4.67;;;17.40;99.90;;;;;;5042145;28;20044;-71
2023/05/11 11:37:02;;;;;;;5.43;4.50;;;17.50;99.90;;;;;;5029015;28;20048;-71
2023/05/11 11:39:41;;;;;;;5.32;4.78;;;17.70;99.90;;;;;;5060937;28;20538;-72
2023/05/11 11:42:17;;;;;;;5.80;5.13;;;18.00;99.90;;;;;;5045147;28;20045;-72
2023/05/11 11:44:45;;;;;;;5.63;4.87;;;18.20;99.90;;;;;;5040338;28;20037;-72
2023/05/11 11:47:12;;;;;;;5.17;4.63;;;18.40;99.90;;;;;;5039708;28;20401;-73
2023/05/11 11:49:42;;;;;;;7.00;5.00;;;18.60;99.90;;;;;;5044233;28;20044;-73
2023/05/11 11:52:29;;;;;;;5.70;4.80;;;18.70;99.90;;;;;;5024185;28;20037;-73
2023/05/11 11:54:59;;;;;;;6.73;5.37;;;19.00;99.90;;;;;;5033111;28;20033;-73
2023/05/11 11:57:34;;;;;;;5.47;4.97;;;19.10;99.90;;;;;;5041980;28;20107;-73
2023/05/11 12:00:04;;;;;;;6.45;5.03;;;19.40;99.90;;;;;;5045124;28;20106;-73
2023/05/11 12:02:30;;;;;;;6.97;5.30;;;19.50;99.90;;;;;;5031774;28;20033;-72
2023/05/11 12:04:59;;;;;;;6.70;5.73;;;19.70;99.90;;;;;;5044115;28;20045;-73
2023/05/11 12:07:26;;;;;;;8.60;5.37;;;19.80;99.90;;;;;;5046048;28;20052;-74
2023/05/11 12:09:52;;;;;;;6.90;5.23;;;19.80;99.90;;;;;;5027267;28;20044;-73
2023/05/11 12:12:19;;;;;;;6.33;5.37;;;19.70;99.90;;;;;;5029980;28;20037;-73
2023/05/11 12:14:50;;;;;;;7.13;5.80;;;19.70;99.90;;;;;;5025632;28;20085;-73
2023/05/11 12:17:28;;;;;;;6.27;5.37;;;19.70;99.90;;;;;;5045334;28;20132;-73
2023/05/11 12:19:54;;;;;;;7.83;5.33;;;19.80;99.90;;;;;;5025761;28;20037;-72
2023/05/11 12:22:24;;;;;;;7.20;6.17;;;19.90;99.90;;;;;;5048602;28;20424;-73
2023/05/11 12:24:53;;;;;;;5.97;5.20;;;20.00;99.90;;;;;;5048214;28;20037;-73
2023/05/11 12:27:19;;;;;;;6.47;5.20;;;20.00;99.90;;;;;;5051947;28;20090;-72
2023/05/11 12:29:51;;;;;;;7.00;5.50;;;20.00;99.90;;;;;;5038228;28;20045;-73
2023/05/11 12:32:27;;;;;;;7.33;5.13;;;19.90;99.90;;;;;;5032174;28;20051;-73
2023/05/11 12:35:01;;;;;;;9.13;6.67;;;19.80;99.90;;;;;;5046181;28;20103;-73
2023/05/11 12:37:28;;;;;;;8.23;6.20;;;19.80;99.90;;;;;;5051194;28;20068;-73
2023/05/11 12:39:55;;;;;;;9.73;6.93;;;19.80;99.90;;;;;;5030442;28;20489;-73
2023/05/11 12:42:21;;;;;;;7.60;6.67;;;19.90;99.90;;;;;;5049828;28;20044;-73
2023/05/11 12:44:47;;;;;;;8.23;7.10;;;20.10;99.90;;;;;;5048697;28;20093;-73